»·PEaware :: N786SC KSBA-KBUR

N786SC :: KSBA-KBUR

FLIGHT INFORMATION

Flight Status: Arrived
Operator: Privately registered:
United States
More flights under this callsign
Pilot: Jereme M. (20698)
Aircraft: CESSNA 172 SKYHAWK
(C172)
More flights by this aircraft type
Origin: KSBA Santa Barbara Mun
United States
Destination: KBUR Bob Hope-Burbank
United States
More flights between these airports :: More routes between these airports
Route: +
File this flight plan on PilotEdge
Remarks:
Altitude:
(Current/Filed)
7,500ft
Speed:
(Current/Filed)
110kts
Departed: 13-Oct-18 08:44 AM
Arrived: 13-Oct-18 09:29 AM
Distance/Time
Traveled:
75nm/0:45
Distance/Time
To Go:
Arrived

Flight Plot

Page will automatically refresh every two minutes.


Map Options




Map Legend


Flown Route
Filed Route
Departure Airport
Arrival Airport
Navaid (VOR, NDB)
Fix

Horizontal Profiles

Position Reports

Time Latitude Longitude Heading Altitude Ground
Speed
13-Oct-18 08:24 34.422664 -119.835594 340 17ft 0kts
13-Oct-18 08:25 34.422664 -119.835594 340 17ft 0kts
13-Oct-18 08:26 34.422664 -119.835594 340 17ft 0kts
13-Oct-18 08:27 34.422664 -119.835594 340 17ft 0kts
13-Oct-18 08:28 34.422664 -119.835594 340 17ft 0kts
13-Oct-18 08:29 34.422664 -119.835594 340 17ft 0kts
13-Oct-18 08:30 34.422664 -119.835594 340 17ft 0kts
13-Oct-18 08:31 34.422664 -119.835594 340 17ft 0kts
13-Oct-18 08:32 34.422664 -119.835594 340 17ft 0kts
13-Oct-18 08:33 34.422664 -119.835594 340 17ft 0kts
13-Oct-18 08:34 34.422664 -119.835594 340 17ft 0kts
13-Oct-18 08:35 34.422664 -119.835594 340 17ft 0kts
13-Oct-18 08:36 34.422664 -119.835594 340 17ft 0kts
13-Oct-18 08:37 34.422664 -119.835594 340 17ft 0kts
13-Oct-18 08:38 34.422664 -119.835594 340 17ft 0kts
13-Oct-18 08:39 34.422664 -119.835594 340 17ft 0kts
13-Oct-18 08:40 34.422664 -119.835594 340 17ft 0kts
13-Oct-18 08:41 34.422664 -119.835594 340 17ft 0kts
13-Oct-18 08:42 34.423462 -119.837356 356 17ft 13kts
13-Oct-18 08:43 34.428295 -119.838842 345 17ft 20kts
13-Oct-18 08:44 34.430657 -119.839820 265 17ft 0kts
13-Oct-18 08:45 34.430657 -119.839820 265 17ft 0kts
13-Oct-18 08:46 34.428505 -119.839688 164 17ft 57kts
13-Oct-18 08:47 34.405153 -119.831427 161 581ft 98kts
13-Oct-18 08:48 34.378377 -119.820779 161 1284ft 104kts
13-Oct-18 08:49 34.369502 -119.791274 82 1985ft 111kts
13-Oct-18 08:50 34.373321 -119.754201 82 2762ft 107kts
13-Oct-18 08:51 34.376666 -119.720936 86 3528ft 92kts
13-Oct-18 08:52 34.372009 -119.691929 108 4218ft 85kts
13-Oct-18 08:53 34.363132 -119.664669 111 4819ft 88kts
13-Oct-18 08:54 34.353610 -119.637726 112 5414ft 87kts
13-Oct-18 08:55 34.344119 -119.611187 112 6011ft 84kts
13-Oct-18 08:56 34.334785 -119.585121 112 6553ft 87kts
13-Oct-18 08:57 34.324838 -119.557467 112 7053ft 91kts
13-Oct-18 08:58 34.312711 -119.523741 112 7500ft 104kts
13-Oct-18 08:59 34.304678 -119.494550 105 7499ft 109kts
13-Oct-18 09:00 34.295274 -119.453466 105 7499ft 108kts
13-Oct-18 09:01 34.288490 -119.423717 104 7500ft 113kts
13-Oct-18 09:02 34.280030 -119.386813 104 7500ft 114kts
13-Oct-18 09:03 34.271553 -119.349875 105 7499ft 114kts
13-Oct-18 09:04 34.263137 -119.313227 105 7499ft 114kts
13-Oct-18 09:05 34.254660 -119.276358 105 7499ft 114kts
13-Oct-18 09:06 34.246182 -119.239480 105 7499ft 114kts
13-Oct-18 09:07 34.237655 -119.202517 105 7499ft 114kts
13-Oct-18 09:08 34.229292 -119.166314 105 7499ft 114kts
13-Oct-18 09:09 34.221023 -119.130608 105 7499ft 114kts
13-Oct-18 09:10 34.212841 -119.093489 95 7499ft 114kts
13-Oct-18 09:11 34.211454 -119.055095 91 7499ft 114kts
13-Oct-18 09:12 34.210287 -119.016714 91 7499ft 114kts
13-Oct-18 09:13 34.209115 -118.978335 91 7499ft 114kts
13-Oct-18 09:14 34.207924 -118.940068 91 7499ft 114kts
13-Oct-18 09:15 34.206508 -118.895388 91 7499ft 114kts
13-Oct-18 09:16 34.205513 -118.863527 91 7499ft 114kts
13-Oct-18 09:17 34.204284 -118.825113 91 7499ft 114kts
13-Oct-18 09:18 34.203008 -118.786419 92 7057ft 115kts
13-Oct-18 09:19 34.202647 -118.748244 90 6564ft 115kts
13-Oct-18 09:20 34.202506 -118.710187 90 6063ft 111kts
13-Oct-18 09:21 34.202362 -118.673087 90 5563ft 110kts
13-Oct-18 09:22 34.202210 -118.636579 90 5068ft 110kts
13-Oct-18 09:23 34.202043 -118.599742 90 4569ft 110kts
13-Oct-18 09:24 34.201835 -118.556755 90 4016ft 108kts
13-Oct-18 09:25 34.201705 -118.528304 90 3783ft 109kts
13-Oct-18 09:26 34.201484 -118.490285 90 3499ft 107kts
13-Oct-18 09:27 34.201306 -118.455380 90 3077ft 106kts
13-Oct-18 09:28 34.198763 -118.422231 93 2073ft 89kts
13-Oct-18 09:29 34.198209 -118.395104 91 1252ft 71kts
13-Oct-18 09:30 34.197893 -118.373906 91 886ft 59kts
13-Oct-18 09:31 34.198257 -118.360334 353 781ft 8kts
13-Oct-18 09:32 34.198585 -118.360392 353 781ft 0kts
13-Oct-18 09:33 34.198585 -118.360392 353 781ft 0kts
13-Oct-18 09:34 34.198585 -118.360392 353 781ft 0kts
13-Oct-18 09:35 34.199895 -118.359280 79 781ft 14kts
13-Oct-18 09:36 34.200305 -118.358813 255 781ft 0kts
13-Oct-18 09:37 34.200305 -118.358813 255 781ft 0kts

Navigation Log

Ident Type
1. KSBA Airport
2. KBUR Airport